world map with PBH marked

PBH - Airport

This information may not be accurate or current and is not valid for navigation or flight planning. No warranty of fitness for any purpose is made or implied.

flag of Bhutan

Donate via PayPal

Additional information is available on the NEW Great Circle Mapper

Location
City:  Paro, Bhutan
Name:Paro International Airport
ICAO / IATA:VQPR / PBH

Details
Type:Airport (Aerodrome, Airfield)
Use:Public/Civil
Latitude:27°24'12"N (27.403464)
Longitude:89°25'30"E (89.424875)
Elevation:7352 ft (2241 m)
Runways:1
Longest:7431 × 98 ft (2265 × 30 m)

Time
Timezone:UTC+5:30
Local Time:

Weather
METAR:VQPR  041100Z 15017KT 9999 SKC 15/M02 Q1017

Related Locations
Nearby:
Farthest:SCFX: 11795 mi / 18982 km
Isla San Félix, Desventuradas Islands, VS, CL

Find:

   beyond  
but within

Other Information
Maps:
Sources:

  


 


Great Circle Mapper   Great Circle Mapper
Great Circle Mapper FAQ   Great Circle Mapper FAQ
  Karl's Home Page
KLS²   KLS² Home
   GC on Facebook
Airlines of the World   Airlines of the World
Donate via PayPal


Copyright © 2004-2019, Karl L. Swartz. All rights reserved.
All trademarks mentioned herein belong to their respective owners.

Please see credits for attribution and copyright information.

Karl Swartz <karl@kls2.com>
  Powered by FreeBSD
Valid HTML 4.01!
Labeled with ICRA
hCard Microformat
Geo Microformat